< < Back
Terminal Aerodrome Forecast


Current Version              Previous Versions:   1  2  3  4  5  6  7  8  9  

Terminal Aerodrome Forecast

423
FTUS42 KCHS 051636 AAA
TAFSAV
TAF AMD
KSAV 051636Z 0517/0612 20010KT P6SM VCTS SCT035 BKN040CB
      TEMPO 0517/0521 VRB15G25KT 3SM TSRA BKN030CB
     FM052300 20007KT P6SM FEW035 BKN120=

Latest METAR

401
SAUS80 KWBC 061100
MTRSAV
METAR KSAV 061053Z COR 27006KT 5SM BR BKN004 OVC007 22/21 A3015 RMK AO2
SLP210 SFC VIS 7 T02170206


USA.gov is the U.S. government's official web portal to all federal, state and local government web resources and services.